sensor_id;sensor_type;location;lat;lon;timestamp;P1;durP1;ratioP1;P2;durP2;ratioP2
20397;SDS011;10358;49.590;11.030;2023-04-28T00:00:52;6.73;;;3.20;;
20397;SDS011;10358;49.590;11.030;2023-04-28T00:03:17;8.27;;;3.37;;
20397;SDS011;10358;49.590;11.030;2023-04-28T00:05:44;10.90;;;3.50;;
20397;SDS011;10358;49.590;11.030;2023-04-28T00:08:10;8.33;;;3.50;;
20397;SDS011;10358;49.590;11.030;2023-04-28T00:10:36;6.57;;;3.30;;
20397;SDS011;10358;49.590;11.030;2023-04-28T00:13:01;8.67;;;3.10;;
20397;SDS011;10358;49.590;11.030;2023-04-28T00:15:27;7.30;;;3.80;;
20397;SDS011;10358;49.590;11.030;2023-04-28T00:17:53;5.67;;;3.00;;
20397;SDS011;10358;49.590;11.030;2023-04-28T00:20:19;7.07;;;3.40;;
20397;SDS011;10358;49.590;11.030;2023-04-28T00:22:44;11.27;;;3.40;;
20397;SDS011;10358;49.590;11.030;2023-04-28T00:25:10;6.90;;;3.73;;
20397;SDS011;10358;49.590;11.030;2023-04-28T00:27:36;8.23;;;3.63;;
20397;SDS011;10358;49.590;11.030;2023-04-28T00:30:01;6.43;;;3.37;;
20397;SDS011;10358;49.590;11.030;2023-04-28T00:32:27;6.93;;;3.47;;
20397;SDS011;10358;49.590;11.030;2023-04-28T00:34:53;9.70;;;3.70;;
20397;SDS011;10358;49.590;11.030;2023-04-28T00:37:18;6.03;;;3.33;;
20397;SDS011;10358;49.590;11.030;2023-04-28T00:39:44;5.03;;;3.10;;
20397;SDS011;10358;49.590;11.030;2023-04-28T00:42:11;5.17;;;3.07;;
20397;SDS011;10358;49.590;11.030;2023-04-28T00:44:37;6.37;;;3.33;;
20397;SDS011;10358;49.590;11.030;2023-04-28T00:47:03;7.77;;;3.30;;
20397;SDS011;10358;49.590;11.030;2023-04-28T00:49:29;5.63;;;3.40;;
20397;SDS011;10358;49.590;11.030;2023-04-28T00:51:55;9.23;;;3.20;;
20397;SDS011;10358;49.590;11.030;2023-04-28T00:54:21;7.93;;;3.63;;
20397;SDS011;10358;49.590;11.030;2023-04-28T00:56:47;9.47;;;3.50;;
20397;SDS011;10358;49.590;11.030;2023-04-28T00:59:13;6.00;;;3.67;;
20397;SDS011;10358;49.590;11.030;2023-04-28T01:01:39;9.13;;;3.50;;
20397;SDS011;10358;49.590;11.030;2023-04-28T01:04:04;5.17;;;3.43;;
20397;SDS011;10358;49.590;11.030;2023-04-28T01:06:30;5.57;;;3.50;;
20397;SDS011;10358;49.590;11.030;2023-04-28T01:08:57;7.20;;;3.37;;
20397;SDS011;10358;49.590;11.030;2023-04-28T01:11:22;5.77;;;3.63;;
20397;SDS011;10358;49.590;11.030;2023-04-28T01:13:48;6.93;;;3.20;;
20397;SDS011;10358;49.590;11.030;2023-04-28T01:16:13;10.13;;;3.40;;
20397;SDS011;10358;49.590;11.030;2023-04-28T01:18:41;5.67;;;3.50;;
20397;SDS011;10358;49.590;11.030;2023-04-28T01:21:10;9.67;;;3.87;;
20397;SDS011;10358;49.590;11.030;2023-04-28T01:23:36;12.10;;;3.77;;
20397;SDS011;10358;49.590;11.030;2023-04-28T01:26:02;7.73;;;3.67;;
20397;SDS011;10358;49.590;11.030;2023-04-28T01:28:28;8.90;;;4.37;;
20397;SDS011;10358;49.590;11.030;2023-04-28T01:30:53;8.53;;;3.63;;
20397;SDS011;10358;49.590;11.030;2023-04-28T01:33:20;10.40;;;3.73;;
20397;SDS011;10358;49.590;11.030;2023-04-28T01:35:45;10.20;;;3.80;;
20397;SDS011;10358;49.590;11.030;2023-04-28T01:38:11;9.07;;;3.83;;
20397;SDS011;10358;49.590;11.030;2023-04-28T01:40:37;7.17;;;3.70;;
20397;SDS011;10358;49.590;11.030;2023-04-28T01:43:02;6.43;;;3.70;;
20397;SDS011;10358;49.590;11.030;2023-04-28T01:45:28;8.90;;;3.97;;
20397;SDS011;10358;49.590;11.030;2023-04-28T01:47:53;6.07;;;3.47;;
20397;SDS011;10358;49.590;11.030;2023-04-28T01:50:19;7.17;;;3.83;;
20397;SDS011;10358;49.590;11.030;2023-04-28T01:52:44;10.30;;;3.93;;
20397;SDS011;10358;49.590;11.030;2023-04-28T01:55:10;10.53;;;3.97;;
20397;SDS011;10358;49.590;11.030;2023-04-28T01:57:36;8.00;;;3.63;;
20397;SDS011;10358;49.590;11.030;2023-04-28T02:00:01;8.20;;;3.70;;
20397;SDS011;10358;49.590;11.030;2023-04-28T02:02:28;13.10;;;3.83;;
20397;SDS011;10358;49.590;11.030;2023-04-28T02:04:54;11.83;;;4.10;;
20397;SDS011;10358;49.590;11.030;2023-04-28T02:07:21;8.53;;;3.90;;
20397;SDS011;10358;49.590;11.030;2023-04-28T02:09:47;7.97;;;3.83;;
20397;SDS011;10358;49.590;11.030;2023-04-28T02:12:13;6.37;;;3.87;;
20397;SDS011;10358;49.590;11.030;2023-04-28T02:14:38;10.07;;;4.50;;
20397;SDS011;10358;49.590;11.030;2023-04-28T02:17:04;10.67;;;3.87;;
20397;SDS011;10358;49.590;11.030;2023-04-28T02:19:30;6.93;;;3.63;;
20397;SDS011;10358;49.590;11.030;2023-04-28T02:21:55;7.03;;;3.80;;
20397;SDS011;10358;49.590;11.030;2023-04-28T02:24:21;8.53;;;4.20;;
20397;SDS011;10358;49.590;11.030;2023-04-28T02:26:47;5.70;;;3.27;;
20397;SDS011;10358;49.590;11.030;2023-04-28T02:29:12;14.03;;;3.73;;
20397;SDS011;10358;49.590;11.030;2023-04-28T02:31:38;7.40;;;3.40;;
20397;SDS011;10358;49.590;11.030;2023-04-28T02:34:04;7.40;;;3.60;;
20397;SDS011;10358;49.590;11.030;2023-04-28T02:36:29;5.07;;;3.30;;
20397;SDS011;10358;49.590;11.030;2023-04-28T02:38:56;7.07;;;3.00;;
20397;SDS011;10358;49.590;11.030;2023-04-28T02:41:22;7.27;;;3.73;;
20397;SDS011;10358;49.590;11.030;2023-04-28T02:43:47;6.83;;;3.90;;
20397;SDS011;10358;49.590;11.030;2023-04-28T02:46:13;7.13;;;3.77;;
20397;SDS011;10358;49.590;11.030;2023-04-28T02:48:38;8.77;;;3.70;;
20397;SDS011;10358;49.590;11.030;2023-04-28T02:51:04;7.43;;;4.13;;
20397;SDS011;10358;49.590;11.030;2023-04-28T02:53:30;10.30;;;4.20;;
20397;SDS011;10358;49.590;11.030;2023-04-28T02:55:55;7.47;;;4.13;;
20397;SDS011;10358;49.590;11.030;2023-04-28T02:58:21;8.07;;;4.07;;
20397;SDS011;10358;49.590;11.030;2023-04-28T03:00:47;7.67;;;4.40;;
20397;SDS011;10358;49.590;11.030;2023-04-28T03:03:12;14.13;;;5.03;;
20397;SDS011;10358;49.590;11.030;2023-04-28T03:05:38;5.67;;;4.00;;
20397;SDS011;10358;49.590;11.030;2023-04-28T03:08:04;9.07;;;4.47;;
20397;SDS011;10358;49.590;11.030;2023-04-28T03:10:30;8.43;;;3.80;;
20397;SDS011;10358;49.590;11.030;2023-04-28T03:12:55;7.80;;;3.83;;
20397;SDS011;10358;49.590;11.030;2023-04-28T03:15:21;9.93;;;3.73;;
20397;SDS011;10358;49.590;11.030;2023-04-28T03:17:46;9.80;;;3.97;;
20397;SDS011;10358;49.590;11.030;2023-04-28T03:20:12;8.80;;;3.77;;
20397;SDS011;10358;49.590;11.030;2023-04-28T03:22:38;6.67;;;3.77;;
20397;SDS011;10358;49.590;11.030;2023-04-28T03:25:03;10.00;;;3.87;;
20397;SDS011;10358;49.590;11.030;2023-04-28T03:27:29;6.77;;;3.43;;
20397;SDS011;10358;49.590;11.030;2023-04-28T03:29:55;8.93;;;3.73;;
20397;SDS011;10358;49.590;11.030;2023-04-28T03:32:21;7.10;;;3.73;;
20397;SDS011;10358;49.590;11.030;2023-04-28T03:34:46;9.10;;;3.73;;
20397;SDS011;10358;49.590;11.030;2023-04-28T03:37:12;7.73;;;3.80;;
20397;SDS011;10358;49.590;11.030;2023-04-28T03:39:38;7.77;;;3.80;;
20397;SDS011;10358;49.590;11.030;2023-04-28T03:42:03;9.03;;;3.50;;
20397;SDS011;10358;49.590;11.030;2023-04-28T03:44:29;8.13;;;4.10;;
20397;SDS011;10358;49.590;11.030;2023-04-28T03:46:55;8.70;;;4.10;;
20397;SDS011;10358;49.590;11.030;2023-04-28T03:49:21;8.83;;;4.27;;
20397;SDS011;10358;49.590;11.030;2023-04-28T03:51:46;10.60;;;4.53;;
20397;SDS011;10358;49.590;11.030;2023-04-28T03:54:12;7.57;;;4.00;;
20397;SDS011;10358;49.590;11.030;2023-04-28T03:56:38;8.77;;;4.00;;
20397;SDS011;10358;49.590;11.030;2023-04-28T03:59:03;6.47;;;3.80;;
20397;SDS011;10358;49.590;11.030;2023-04-28T04:01:29;7.37;;;3.73;;
20397;SDS011;10358;49.590;11.030;2023-04-28T04:03:54;9.73;;;3.37;;
20397;SDS011;10358;49.590;11.030;2023-04-28T04:06:20;6.97;;;3.50;;
20397;SDS011;10358;49.590;11.030;2023-04-28T04:08:46;5.67;;;3.60;;
20397;SDS011;10358;49.590;11.030;2023-04-28T04:11:12;7.50;;;3.73;;
20397;SDS011;10358;49.590;11.030;2023-04-28T04:13:37;6.13;;;4.00;;
20397;SDS011;10358;49.590;11.030;2023-04-28T04:16:03;7.23;;;4.00;;
20397;SDS011;10358;49.590;11.030;2023-04-28T04:18:29;6.83;;;3.80;;
20397;SDS011;10358;49.590;11.030;2023-04-28T04:20:55;10.43;;;4.47;;
20397;SDS011;10358;49.590;11.030;2023-04-28T04:23:21;8.60;;;4.10;;
20397;SDS011;10358;49.590;11.030;2023-04-28T04:25:47;8.00;;;3.97;;
20397;SDS011;10358;49.590;11.030;2023-04-28T04:28:13;9.13;;;4.17;;
20397;SDS011;10358;49.590;11.030;2023-04-28T04:30:39;8.77;;;4.03;;
20397;SDS011;10358;49.590;11.030;2023-04-28T04:33:04;5.93;;;4.30;;
20397;SDS011;10358;49.590;11.030;2023-04-28T04:35:30;12.97;;;5.10;;
20397;SDS011;10358;49.590;11.030;2023-04-28T04:37:55;8.00;;;4.10;;
20397;SDS011;10358;49.590;11.030;2023-04-28T04:40:21;8.50;;;4.00;;
20397;SDS011;10358;49.590;11.030;2023-04-28T04:42:47;8.03;;;4.00;;
20397;SDS011;10358;49.590;11.030;2023-04-28T04:45:12;8.17;;;3.90;;
20397;SDS011;10358;49.590;11.030;2023-04-28T04:47:38;7.97;;;4.30;;
20397;SDS011;10358;49.590;11.030;2023-04-28T04:50:04;7.50;;;4.07;;
20397;SDS011;10358;49.590;11.030;2023-04-28T04:52:31;8.77;;;4.40;;
20397;SDS011;10358;49.590;11.030;2023-04-28T04:54:56;8.97;;;3.90;;
20397;SDS011;10358;49.590;11.030;2023-04-28T04:57:22;7.27;;;4.50;;
20397;SDS011;10358;49.590;11.030;2023-04-28T04:59:47;6.47;;;3.93;;
20397;SDS011;10358;49.590;11.030;2023-04-28T05:02:13;8.10;;;4.43;;
20397;SDS011;10358;49.590;11.030;2023-04-28T05:04:38;7.93;;;3.77;;
20397;SDS011;10358;49.590;11.030;2023-04-28T05:07:04;6.87;;;4.10;;
20397;SDS011;10358;49.590;11.030;2023-04-28T05:09:29;8.87;;;4.57;;
20397;SDS011;10358;49.590;11.030;2023-04-28T05:11:56;7.70;;;4.30;;
20397;SDS011;10358;49.590;11.030;2023-04-28T05:14:21;6.13;;;4.30;;
20397;SDS011;10358;49.590;11.030;2023-04-28T05:16:47;7.90;;;4.13;;
20397;SDS011;10358;49.590;11.030;2023-04-28T05:19:13;6.80;;;4.10;;
20397;SDS011;10358;49.590;11.030;2023-04-28T05:21:38;6.87;;;4.10;;
20397;SDS011;10358;49.590;11.030;2023-04-28T05:24:04;13.43;;;4.13;;
20397;SDS011;10358;49.590;11.030;2023-04-28T05:26:30;6.90;;;4.23;;
20397;SDS011;10358;49.590;11.030;2023-04-28T05:28:55;7.93;;;4.53;;
20397;SDS011;10358;49.590;11.030;2023-04-28T05:31:21;7.10;;;4.27;;
20397;SDS011;10358;49.590;11.030;2023-04-28T05:33:46;7.17;;;4.13;;
20397;SDS011;10358;49.590;11.030;2023-04-28T05:36:12;6.97;;;4.07;;
20397;SDS011;10358;49.590;11.030;2023-04-28T05:38:40;7.37;;;4.00;;
20397;SDS011;10358;49.590;11.030;2023-04-28T05:41:06;7.37;;;4.03;;
20397;SDS011;10358;49.590;11.030;2023-04-28T05:43:32;7.60;;;4.93;;
20397;SDS011;10358;49.590;11.030;2023-04-28T05:45:57;11.17;;;4.40;;
20397;SDS011;10358;49.590;11.030;2023-04-28T05:48:24;6.20;;;4.37;;
20397;SDS011;10358;49.590;11.030;2023-04-28T05:50:50;6.03;;;4.50;;
20397;SDS011;10358;49.590;11.030;2023-04-28T05:53:15;9.23;;;4.33;;
20397;SDS011;10358;49.590;11.030;2023-04-28T05:55:41;9.90;;;4.73;;
20397;SDS011;10358;49.590;11.030;2023-04-28T05:58:06;7.37;;;4.50;;
20397;SDS011;10358;49.590;11.030;2023-04-28T06:00:32;8.13;;;5.00;;
20397;SDS011;10358;49.590;11.030;2023-04-28T06:02:58;7.10;;;4.07;;
20397;SDS011;10358;49.590;11.030;2023-04-28T06:05:24;8.43;;;4.50;;
20397;SDS011;10358;49.590;11.030;2023-04-28T06:07:50;9.70;;;4.60;;
20397;SDS011;10358;49.590;11.030;2023-04-28T06:10:15;8.47;;;4.80;;
20397;SDS011;10358;49.590;11.030;2023-04-28T06:12:41;9.50;;;4.60;;
20397;SDS011;10358;49.590;11.030;2023-04-28T06:15:07;8.13;;;4.60;;
20397;SDS011;10358;49.590;11.030;2023-04-28T06:17:32;11.67;;;4.70;;
20397;SDS011;10358;49.590;11.030;2023-04-28T06:19:58;8.10;;;4.70;;
20397;SDS011;10358;49.590;11.030;2023-04-28T06:22:24;11.17;;;4.90;;
20397;SDS011;10358;49.590;11.030;2023-04-28T06:24:50;8.73;;;4.70;;
20397;SDS011;10358;49.590;11.030;2023-04-28T06:27:18;7.90;;;4.43;;
20397;SDS011;10358;49.590;11.030;2023-04-28T06:29:44;8.63;;;4.50;;
20397;SDS011;10358;49.590;11.030;2023-04-28T06:32:09;9.00;;;4.33;;
20397;SDS011;10358;49.590;11.030;2023-04-28T06:34:36;7.07;;;4.73;;
20397;SDS011;10358;49.590;11.030;2023-04-28T06:37:01;7.13;;;4.57;;
20397;SDS011;10358;49.590;11.030;2023-04-28T06:39:27;10.67;;;4.90;;
20397;SDS011;10358;49.590;11.030;2023-04-28T06:41:52;7.60;;;4.73;;
20397;SDS011;10358;49.590;11.030;2023-04-28T06:44:18;8.27;;;4.70;;
20397;SDS011;10358;49.590;11.030;2023-04-28T06:46:43;7.90;;;4.70;;
20397;SDS011;10358;49.590;11.030;2023-04-28T06:49:09;10.87;;;4.77;;
20397;SDS011;10358;49.590;11.030;2023-04-28T06:51:35;7.40;;;4.70;;
20397;SDS011;10358;49.590;11.030;2023-04-28T06:54:01;8.30;;;5.17;;
20397;SDS011;10358;49.590;11.030;2023-04-28T06:56:26;8.03;;;5.00;;
20397;SDS011;10358;49.590;11.030;2023-04-28T06:58:53;7.07;;;4.53;;
20397;SDS011;10358;49.590;11.030;2023-04-28T07:01:20;11.80;;;5.03;;
20397;SDS011;10358;49.590;11.030;2023-04-28T07:03:45;8.63;;;4.80;;
20397;SDS011;10358;49.590;11.030;2023-04-28T07:06:11;9.27;;;4.83;;
20397;SDS011;10358;49.590;11.030;2023-04-28T07:08:37;15.73;;;5.40;;
20397;SDS011;10358;49.590;11.030;2023-04-28T07:11:03;10.33;;;4.90;;
20397;SDS011;10358;49.590;11.030;2023-04-28T07:13:30;7.17;;;4.60;;
20397;SDS011;10358;49.590;11.030;2023-04-28T07:15:56;8.17;;;4.53;;
20397;SDS011;10358;49.590;11.030;2023-04-28T07:18:21;9.67;;;5.23;;
20397;SDS011;10358;49.590;11.030;2023-04-28T07:20:47;10.73;;;5.27;;
20397;SDS011;10358;49.590;11.030;2023-04-28T07:23:13;10.43;;;5.47;;
20397;SDS011;10358;49.590;11.030;2023-04-28T07:25:39;9.83;;;5.23;;
20397;SDS011;10358;49.590;11.030;2023-04-28T07:28:05;10.33;;;4.97;;
20397;SDS011;10358;49.590;11.030;2023-04-28T07:30:32;8.37;;;4.83;;
20397;SDS011;10358;49.590;11.030;2023-04-28T07:32:58;10.27;;;5.37;;
20397;SDS011;10358;49.590;11.030;2023-04-28T07:35:24;8.87;;;4.97;;
20397;SDS011;10358;49.590;11.030;2023-04-28T07:37:50;11.70;;;5.53;;
20397;SDS011;10358;49.590;11.030;2023-04-28T07:40:16;13.33;;;5.67;;
20397;SDS011;10358;49.590;11.030;2023-04-28T07:42:42;13.67;;;5.90;;
20397;SDS011;10358;49.590;11.030;2023-04-28T07:45:09;9.93;;;5.70;;
20397;SDS011;10358;49.590;11.030;2023-04-28T07:47:35;11.77;;;5.17;;
20397;SDS011;10358;49.590;11.030;2023-04-28T07:50:01;9.90;;;5.57;;
20397;SDS011;10358;49.590;11.030;2023-04-28T07:52:29;9.30;;;5.67;;
20397;SDS011;10358;49.590;11.030;2023-04-28T07:54:55;11.43;;;5.70;;
20397;SDS011;10358;49.590;11.030;2023-04-28T07:57:21;12.63;;;5.70;;
20397;SDS011;10358;49.590;11.030;2023-04-28T07:59:47;9.93;;;5.97;;
20397;SDS011;10358;49.590;11.030;2023-04-28T08:02:12;11.40;;;5.97;;
20397;SDS011;10358;49.590;11.030;2023-04-28T08:04:38;11.83;;;6.13;;
20397;SDS011;10358;49.590;11.030;2023-04-28T08:07:04;12.40;;;5.80;;
20397;SDS011;10358;49.590;11.030;2023-04-28T08:09:30;13.90;;;6.53;;
20397;SDS011;10358;49.590;11.030;2023-04-28T08:11:55;10.83;;;5.60;;
20397;SDS011;10358;49.590;11.030;2023-04-28T08:14:22;12.60;;;6.57;;
20397;SDS011;10358;49.590;11.030;2023-04-28T08:16:48;11.23;;;6.07;;
20397;SDS011;10358;49.590;11.030;2023-04-28T08:19:14;14.70;;;6.87;;
20397;SDS011;10358;49.590;11.030;2023-04-28T08:21:39;13.03;;;6.43;;
20397;SDS011;10358;49.590;11.030;2023-04-28T08:24:05;12.53;;;6.03;;
20397;SDS011;10358;49.590;11.030;2023-04-28T08:26:32;11.30;;;6.07;;
20397;SDS011;10358;49.590;11.030;2023-04-28T08:28:57;11.03;;;6.43;;
20397;SDS011;10358;49.590;11.030;2023-04-28T08:31:23;12.90;;;6.13;;
20397;SDS011;10358;49.590;11.030;2023-04-28T08:33:49;12.20;;;5.97;;
20397;SDS011;10358;49.590;11.030;2023-04-28T08:36:15;11.17;;;6.57;;
20397;SDS011;10358;49.590;11.030;2023-04-28T08:38:42;11.97;;;5.73;;
20397;SDS011;10358;49.590;11.030;2023-04-28T08:41:08;9.90;;;6.00;;
20397;SDS011;10358;49.590;11.030;2023-04-28T08:43:34;9.83;;;5.90;;
20397;SDS011;10358;49.590;11.030;2023-04-28T08:46:02;14.33;;;6.33;;
20397;SDS011;10358;49.590;11.030;2023-04-28T08:48:30;11.57;;;6.50;;
20397;SDS011;10358;49.590;11.030;2023-04-28T08:51:08;10.97;;;6.07;;
20397;SDS011;10358;49.590;11.030;2023-04-28T08:53:39;8.97;;;6.00;;
20397;SDS011;10358;49.590;11.030;2023-04-28T08:56:07;10.87;;;5.83;;
20397;SDS011;10358;49.590;11.030;2023-04-28T08:58:35;11.37;;;6.30;;
20397;SDS011;10358;49.590;11.030;2023-04-28T09:01:03;11.97;;;6.27;;
20397;SDS011;10358;49.590;11.030;2023-04-28T09:03:29;10.87;;;6.63;;
20397;SDS011;10358;49.590;11.030;2023-04-28T09:05:56;10.03;;;5.93;;
20397;SDS011;10358;49.590;11.030;2023-04-28T09:08:22;10.77;;;6.53;;
20397;SDS011;10358;49.590;11.030;2023-04-28T09:10:48;11.37;;;6.20;;
20397;SDS011;10358;49.590;11.030;2023-04-28T09:13:30;10.77;;;5.50;;
20397;SDS011;10358;49.590;11.030;2023-04-28T09:16:00;12.30;;;6.30;;
20397;SDS011;10358;49.590;11.030;2023-04-28T09:18:27;12.60;;;6.37;;
20397;SDS011;10358;49.590;11.030;2023-04-28T09:21:06;13.10;;;6.70;;
20397;SDS011;10358;49.590;11.030;2023-04-28T09:23:32;11.27;;;6.13;;
20397;SDS011;10358;49.590;11.030;2023-04-28T09:26:00;10.57;;;6.60;;
20397;SDS011;10358;49.590;11.030;2023-04-28T09:28:27;11.73;;;6.30;;
20397;SDS011;10358;49.590;11.030;2023-04-28T09:30:53;9.43;;;6.20;;
20397;SDS011;10358;49.590;11.030;2023-04-28T09:33:19;9.57;;;6.27;;
20397;SDS011;10358;49.590;11.030;2023-04-28T09:35:45;10.00;;;6.63;;
20397;SDS011;10358;49.590;11.030;2023-04-28T09:38:12;10.90;;;6.27;;
20397;SDS011;10358;49.590;11.030;2023-04-28T09:40:55;10.53;;;5.80;;
20397;SDS011;10358;49.590;11.030;2023-04-28T09:43:26;14.33;;;6.73;;
20397;SDS011;10358;49.590;11.030;2023-04-28T09:45:52;11.23;;;5.70;;
20397;SDS011;10358;49.590;11.030;2023-04-28T09:48:35;9.93;;;6.00;;
20397;SDS011;10358;49.590;11.030;2023-04-28T09:51:03;9.23;;;5.80;;
20397;SDS011;10358;49.590;11.030;2023-04-28T09:53:30;9.50;;;5.60;;
20397;SDS011;10358;49.590;11.030;2023-04-28T09:55:58;11.67;;;6.33;;
20397;SDS011;10358;49.590;11.030;2023-04-28T09:58:26;12.50;;;5.67;;
20397;SDS011;10358;49.590;11.030;2023-04-28T10:00:56;10.57;;;6.07;;
20397;SDS011;10358;49.590;11.030;2023-04-28T10:03:27;10.73;;;5.70;;
20397;SDS011;10358;49.590;11.030;2023-04-28T10:05:53;9.67;;;6.20;;
20397;SDS011;10358;49.590;11.030;2023-04-28T10:08:22;10.67;;;6.07;;
20397;SDS011;10358;49.590;11.030;2023-04-28T10:10:49;10.93;;;6.33;;
20397;SDS011;10358;49.590;11.030;2023-04-28T10:13:19;9.13;;;5.80;;
20397;SDS011;10358;49.590;11.030;2023-04-28T10:15:46;9.50;;;6.37;;
20397;SDS011;10358;49.590;11.030;2023-04-28T10:18:12;8.73;;;5.80;;
20397;SDS011;10358;49.590;11.030;2023-04-28T10:20:45;12.70;;;6.30;;
20397;SDS011;10358;49.590;11.030;2023-04-28T10:26:00;13.40;;;6.03;;
20397;SDS011;10358;49.590;11.030;2023-04-28T10:28:27;10.67;;;6.70;;
20397;SDS011;10358;49.590;11.030;2023-04-28T10:31:13;12.97;;;6.43;;
20397;SDS011;10358;49.590;11.030;2023-04-28T10:33:40;11.37;;;6.33;;
20397;SDS011;10358;49.590;11.030;2023-04-28T10:36:06;10.77;;;6.30;;
20397;SDS011;10358;49.590;11.030;2023-04-28T10:38:32;9.33;;;6.73;;
20397;SDS011;10358;49.590;11.030;2023-04-28T10:40:59;10.40;;;6.47;;
20397;SDS011;10358;49.590;11.030;2023-04-28T10:48:20;11.47;;;6.50;;
20397;SDS011;10358;49.590;11.030;2023-04-28T10:51:16;12.33;;;6.73;;
20397;SDS011;10358;49.590;11.030;2023-04-28T10:56:09;10.00;;;6.57;;
20397;SDS011;10358;49.590;11.030;2023-04-28T10:58:36;9.43;;;6.10;;
20397;SDS011;10358;49.590;11.030;2023-04-28T11:03:54;9.70;;;6.80;;
20397;SDS011;10358;49.590;11.030;2023-04-28T11:06:31;13.47;;;7.37;;
20397;SDS011;10358;49.590;11.030;2023-04-28T11:14:35;12.57;;;6.13;;
20397;SDS011;10358;49.590;11.030;2023-04-28T11:17:04;9.43;;;6.20;;
20397;SDS011;10358;49.590;11.030;2023-04-28T11:22:00;10.73;;;7.07;;
20397;SDS011;10358;49.590;11.030;2023-04-28T11:24:28;10.37;;;6.50;;
20397;SDS011;10358;49.590;11.030;2023-04-28T11:26:55;10.03;;;6.57;;
20397;SDS011;10358;49.590;11.030;2023-04-28T11:29:34;7.90;;;6.10;;
20397;SDS011;10358;49.590;11.030;2023-04-28T11:32:07;10.30;;;6.67;;
20397;SDS011;10358;49.590;11.030;2023-04-28T11:34:34;8.37;;;6.30;;
20397;SDS011;10358;49.590;11.030;2023-04-28T11:37:01;11.30;;;6.73;;
20397;SDS011;10358;49.590;11.030;2023-04-28T11:39:28;8.87;;;6.63;;
20397;SDS011;10358;49.590;11.030;2023-04-28T11:41:55;8.33;;;6.30;;
20397;SDS011;10358;49.590;11.030;2023-04-28T11:44:23;8.97;;;6.87;;
20397;SDS011;10358;49.590;11.030;2023-04-28T11:46:51;8.77;;;6.47;;
20397;SDS011;10358;49.590;11.030;2023-04-28T11:49:25;7.07;;;5.93;;
20397;SDS011;10358;49.590;11.030;2023-04-28T11:51:53;7.37;;;6.07;;
20397;SDS011;10358;49.590;11.030;2023-04-28T11:54:25;9.63;;;6.53;;
20397;SDS011;10358;49.590;11.030;2023-04-28T11:56:53;9.77;;;7.03;;
20397;SDS011;10358;49.590;11.030;2023-04-28T11:59:24;9.90;;;6.57;;
20397;SDS011;10358;49.590;11.030;2023-04-28T12:01:50;8.73;;;6.10;;
20397;SDS011;10358;49.590;11.030;2023-04-28T12:06:57;8.00;;;6.20;;
20397;SDS011;10358;49.590;11.030;2023-04-28T12:09:24;8.17;;;5.93;;
20397;SDS011;10358;49.590;11.030;2023-04-28T12:11:53;9.73;;;6.23;;
20397;SDS011;10358;49.590;11.030;2023-04-28T12:14:56;8.57;;;6.23;;
20397;SDS011;10358;49.590;11.030;2023-04-28T12:19:50;11.10;;;6.37;;
20397;SDS011;10358;49.590;11.030;2023-04-28T12:22:16;9.25;;;6.07;;
20397;SDS011;10358;49.590;11.030;2023-04-28T12:24:42;9.75;;;5.90;;
20397;SDS011;10358;49.590;11.030;2023-04-28T12:27:12;7.03;;;5.57;;
20397;SDS011;10358;49.590;11.030;2023-04-28T12:29:40;8.38;;;6.20;;
20397;SDS011;10358;49.590;11.030;2023-04-28T12:32:07;8.40;;;6.10;;
20397;SDS011;10358;49.590;11.030;2023-04-28T12:34:35;7.70;;;5.90;;
20397;SDS011;10358;49.590;11.030;2023-04-28T12:37:02;7.22;;;5.80;;
20397;SDS011;10358;49.590;11.030;2023-04-28T12:39:30;10.05;;;6.47;;
20397;SDS011;10358;49.590;11.030;2023-04-28T12:41:56;8.77;;;6.28;;
20397;SDS011;10358;49.590;11.030;2023-04-28T12:44:23;7.43;;;5.60;;
20397;SDS011;10358;49.590;11.030;2023-04-28T12:46:50;8.25;;;6.32;;
20397;SDS011;10358;49.590;11.030;2023-04-28T12:49:16;7.20;;;5.82;;
20397;SDS011;10358;49.590;11.030;2023-04-28T12:51:41;6.63;;;5.78;;
20397;SDS011;10358;49.590;11.030;2023-04-28T12:54:07;13.07;;;6.97;;
20397;SDS011;10358;49.590;11.030;2023-04-28T12:56:33;9.45;;;6.45;;
20397;SDS011;10358;49.590;11.030;2023-04-28T12:58:59;6.82;;;5.82;;
20397;SDS011;10358;49.590;11.030;2023-04-28T13:01:27;8.88;;;5.95;;
20397;SDS011;10358;49.590;11.030;2023-04-28T13:03:53;7.15;;;5.75;;
20397;SDS011;10358;49.590;11.030;2023-04-28T13:06:19;9.13;;;5.53;;
20397;SDS011;10358;49.590;11.030;2023-04-28T13:08:44;8.02;;;5.70;;
20397;SDS011;10358;49.590;11.030;2023-04-28T13:11:10;7.57;;;6.20;;
20397;SDS011;10358;49.590;11.030;2023-04-28T13:13:36;9.55;;;6.18;;
20397;SDS011;10358;49.590;11.030;2023-04-28T13:16:02;8.93;;;5.75;;
20397;SDS011;10358;49.590;11.030;2023-04-28T13:18:29;9.18;;;5.85;;
20397;SDS011;10358;49.590;11.030;2023-04-28T13:20:55;6.43;;;5.65;;
20397;SDS011;10358;49.590;11.030;2023-04-28T13:23:21;6.15;;;5.50;;
20397;SDS011;10358;49.590;11.030;2023-04-28T13:25:46;6.25;;;5.55;;
20397;SDS011;10358;49.590;11.030;2023-04-28T13:28:12;7.18;;;5.60;;
20397;SDS011;10358;49.590;11.030;2023-04-28T13:30:38;11.00;;;7.95;;
20397;SDS011;10358;49.590;11.030;2023-04-28T13:33:04;8.23;;;6.32;;
20397;SDS011;10358;49.590;11.030;2023-04-28T13:35:29;7.68;;;5.65;;
20397;SDS011;10358;49.590;11.030;2023-04-28T13:37:55;7.05;;;5.22;;
20397;SDS011;10358;49.590;11.030;2023-04-28T13:40:25;5.88;;;4.85;;
20397;SDS011;10358;49.590;11.030;2023-04-28T13:42:52;7.20;;;5.80;;
20397;SDS011;10358;49.590;11.030;2023-04-28T13:45:18;7.95;;;5.80;;
20397;SDS011;10358;49.590;11.030;2023-04-28T13:47:43;7.47;;;5.82;;
20397;SDS011;10358;49.590;11.030;2023-04-28T13:50:09;9.38;;;5.60;;
20397;SDS011;10358;49.590;11.030;2023-04-28T13:52:34;8.25;;;5.82;;
20397;SDS011;10358;49.590;11.030;2023-04-28T13:55:00;8.50;;;5.90;;
20397;SDS011;10358;49.590;11.030;2023-04-28T13:57:26;7.40;;;5.10;;
20397;SDS011;10358;49.590;11.030;2023-04-28T13:59:51;8.65;;;5.40;;
20397;SDS011;10358;49.590;11.030;2023-04-28T14:02:17;7.47;;;5.60;;
20397;SDS011;10358;49.590;11.030;2023-04-28T14:04:42;6.25;;;5.22;;
20397;SDS011;10358;49.590;11.030;2023-04-28T14:07:13;5.50;;;4.65;;
20397;SDS011;10358;49.590;11.030;2023-04-28T14:09:38;7.32;;;5.40;;
20397;SDS011;10358;49.590;11.030;2023-04-28T14:12:04;6.78;;;5.57;;
20397;SDS011;10358;49.590;11.030;2023-04-28T14:14:30;5.88;;;5.15;;
20397;SDS011;10358;49.590;11.030;2023-04-28T14:16:56;6.80;;;5.40;;
20397;SDS011;10358;49.590;11.030;2023-04-28T14:19:22;8.95;;;5.22;;
20397;SDS011;10358;49.590;11.030;2023-04-28T14:21:50;5.95;;;4.97;;
20397;SDS011;10358;49.590;11.030;2023-04-28T14:24:16;9.45;;;4.97;;
20397;SDS011;10358;49.590;11.030;2023-04-28T14:26:42;6.30;;;4.82;;
20397;SDS011;10358;49.590;11.030;2023-04-28T14:29:08;6.43;;;5.03;;
20397;SDS011;10358;49.590;11.030;2023-04-28T14:31:33;5.90;;;4.97;;
20397;SDS011;10358;49.590;11.030;2023-04-28T14:33:59;5.63;;;4.30;;
20397;SDS011;10358;49.590;11.030;2023-04-28T14:36:25;6.82;;;4.90;;
20397;SDS011;10358;49.590;11.030;2023-04-28T14:38:51;6.75;;;4.80;;
20397;SDS011;10358;49.590;11.030;2023-04-28T14:41:17;8.07;;;5.07;;
20397;SDS011;10358;49.590;11.030;2023-04-28T14:43:42;6.97;;;4.72;;
20397;SDS011;10358;49.590;11.030;2023-04-28T14:46:09;6.60;;;4.53;;
20397;SDS011;10358;49.590;11.030;2023-04-28T14:48:35;6.65;;;4.53;;
20397;SDS011;10358;49.590;11.030;2023-04-28T14:51:00;5.80;;;4.50;;
20397;SDS011;10358;49.590;11.030;2023-04-28T14:53:26;6.78;;;4.65;;